Terminal Aerodrome Forecast
Issued by NWS

Current Version | Previous Version | Text Only | Print | Product List | Glossary Off
Versions: 1 2 3 4 5 6 7 8 9 10 11 12 13 14 15 16 17 18 19 20 21 22 23 24 25 26 27

687
FTUS41 KRLX 251124
TAFCKB
TAF
KCKB 251124Z 2512/2612 22006KT 5SM RA BKN045 OVC050
     FM251300 23009KT 6SM -SHRA OVC025
     FM251400 25012G23KT 6SM -SHRA OVC025
     FM251500 26010G16KT P6SM OVC025
     FM251700 24010G19KT P6SM BKN045
     FM251800 25012G23KT P6SM BKN040=

USA.gov is the U.S. government's official web portal to all federal, state and local government web resources and services.